sensor_id;sensor_type;location;lat;lon;timestamp;P1;durP1;ratioP1;P2;durP2;ratioP2
3667;SDS011;24099;47.102;15.440;2023-12-14T00:00:00;7.70;;;3.58;;
3667;SDS011;24099;47.102;15.440;2023-12-14T00:02:31;7.20;;;3.20;;
3667;SDS011;24099;47.102;15.440;2023-12-14T00:04:58;7.13;;;3.70;;
3667;SDS011;24099;47.102;15.440;2023-12-14T00:07:26;7.38;;;3.88;;
3667;SDS011;24099;47.102;15.440;2023-12-14T00:09:55;7.13;;;3.78;;
3667;SDS011;24099;47.102;15.440;2023-12-14T00:12:23;6.60;;;3.70;;
3667;SDS011;24099;47.102;15.440;2023-12-14T00:14:50;6.90;;;3.55;;
3667;SDS011;24099;47.102;15.440;2023-12-14T00:17:18;10.73;;;3.97;;
3667;SDS011;24099;47.102;15.440;2023-12-14T00:19:46;8.18;;;3.33;;
3667;SDS011;24099;47.102;15.440;2023-12-14T00:22:13;11.73;;;3.75;;
3667;SDS011;24099;47.102;15.440;2023-12-14T00:24:41;8.88;;;3.45;;
3667;SDS011;24099;47.102;15.440;2023-12-14T00:27:10;6.57;;;3.30;;
3667;SDS011;24099;47.102;15.440;2023-12-14T00:29:37;5.95;;;3.22;;
3667;SDS011;24099;47.102;15.440;2023-12-14T00:32:05;6.57;;;3.60;;
3667;SDS011;24099;47.102;15.440;2023-12-14T00:34:33;8.23;;;3.42;;
3667;SDS011;24099;47.102;15.440;2023-12-14T00:37:01;6.75;;;3.83;;
3667;SDS011;24099;47.102;15.440;2023-12-14T00:39:29;7.35;;;3.97;;
3667;SDS011;24099;47.102;15.440;2023-12-14T00:41:57;6.68;;;3.47;;
3667;SDS011;24099;47.102;15.440;2023-12-14T00:44:26;6.18;;;3.25;;
3667;SDS011;24099;47.102;15.440;2023-12-14T00:46:53;4.97;;;3.35;;
3667;SDS011;24099;47.102;15.440;2023-12-14T00:49:22;4.55;;;2.97;;
3667;SDS011;24099;47.102;15.440;2023-12-14T00:51:49;5.00;;;3.20;;
3667;SDS011;24099;47.102;15.440;2023-12-14T00:54:17;6.60;;;3.33;;
3667;SDS011;24099;47.102;15.440;2023-12-14T00:56:45;6.68;;;3.67;;
3667;SDS011;24099;47.102;15.440;2023-12-14T00:59:13;4.82;;;3.08;;
3667;SDS011;24099;47.102;15.440;2023-12-14T01:01:42;6.63;;;3.63;;
3667;SDS011;24099;47.102;15.440;2023-12-14T01:04:09;6.03;;;3.70;;
3667;SDS011;24099;47.102;15.440;2023-12-14T01:06:37;5.28;;;3.10;;
3667;SDS011;24099;47.102;15.440;2023-12-14T01:09:04;7.78;;;4.15;;
3667;SDS011;24099;47.102;15.440;2023-12-14T01:11:33;6.32;;;3.58;;
3667;SDS011;24099;47.102;15.440;2023-12-14T01:14:00;4.53;;;3.00;;
3667;SDS011;24099;47.102;15.440;2023-12-14T01:16:29;7.70;;;2.90;;
3667;SDS011;24099;47.102;15.440;2023-12-14T01:18:58;7.20;;;3.88;;
3667;SDS011;24099;47.102;15.440;2023-12-14T01:21:29;9.30;;;3.50;;
3667;SDS011;24099;47.102;15.440;2023-12-14T01:23:57;4.57;;;2.63;;
3667;SDS011;24099;47.102;15.440;2023-12-14T01:26:25;4.28;;;3.13;;
3667;SDS011;24099;47.102;15.440;2023-12-14T01:28:53;4.35;;;2.88;;
3667;SDS011;24099;47.102;15.440;2023-12-14T01:31:21;5.65;;;3.35;;
3667;SDS011;24099;47.102;15.440;2023-12-14T01:33:49;6.43;;;3.72;;
3667;SDS011;24099;47.102;15.440;2023-12-14T01:36:21;3.72;;;2.78;;
3667;SDS011;24099;47.102;15.440;2023-12-14T01:38:49;5.53;;;2.80;;
3667;SDS011;24099;47.102;15.440;2023-12-14T01:41:17;6.75;;;3.30;;
3667;SDS011;24099;47.102;15.440;2023-12-14T01:43:45;9.50;;;3.97;;
3667;SDS011;24099;47.102;15.440;2023-12-14T01:46:13;12.43;;;3.75;;
3667;SDS011;24099;47.102;15.440;2023-12-14T01:48:41;4.82;;;2.58;;
3667;SDS011;24099;47.102;15.440;2023-12-14T01:51:09;7.00;;;3.67;;
3667;SDS011;24099;47.102;15.440;2023-12-14T01:53:38;5.57;;;3.25;;
3667;SDS011;24099;47.102;15.440;2023-12-14T01:56:06;6.78;;;3.00;;
3667;SDS011;24099;47.102;15.440;2023-12-14T01:58:34;5.70;;;3.00;;
3667;SDS011;24099;47.102;15.440;2023-12-14T02:01:03;6.25;;;3.08;;
3667;SDS011;24099;47.102;15.440;2023-12-14T02:03:43;5.63;;;3.10;;
3667;SDS011;24099;47.102;15.440;2023-12-14T02:06:11;5.72;;;2.83;;
3667;SDS011;24099;47.102;15.440;2023-12-14T02:08:40;7.28;;;3.35;;
3667;SDS011;24099;47.102;15.440;2023-12-14T02:11:08;4.22;;;2.70;;
3667;SDS011;24099;47.102;15.440;2023-12-14T02:13:35;6.68;;;3.03;;
3667;SDS011;24099;47.102;15.440;2023-12-14T02:16:03;7.25;;;3.72;;
3667;SDS011;24099;47.102;15.440;2023-12-14T02:18:31;4.53;;;2.83;;
3667;SDS011;24099;47.102;15.440;2023-12-14T02:20:59;3.95;;;2.70;;
3667;SDS011;24099;47.102;15.440;2023-12-14T02:23:28;4.10;;;2.42;;
3667;SDS011;24099;47.102;15.440;2023-12-14T02:25:56;4.35;;;2.60;;
3667;SDS011;24099;47.102;15.440;2023-12-14T02:28:23;4.10;;;2.60;;
3667;SDS011;24099;47.102;15.440;2023-12-14T02:30:51;4.90;;;2.95;;
3667;SDS011;24099;47.102;15.440;2023-12-14T02:33:19;6.72;;;2.85;;
3667;SDS011;24099;47.102;15.440;2023-12-14T02:35:48;5.22;;;3.25;;
3667;SDS011;24099;47.102;15.440;2023-12-14T02:38:16;9.48;;;2.53;;
3667;SDS011;24099;47.102;15.440;2023-12-14T02:40:46;7.47;;;2.75;;
3667;SDS011;24099;47.102;15.440;2023-12-14T02:43:18;5.07;;;2.88;;
3667;SDS011;24099;47.102;15.440;2023-12-14T02:48:20;3.15;;;2.40;;
3667;SDS011;24099;47.102;15.440;2023-12-14T02:50:48;4.07;;;2.75;;
3667;SDS011;24099;47.102;15.440;2023-12-14T02:53:15;3.63;;;2.63;;
3667;SDS011;24099;47.102;15.440;2023-12-14T02:55:43;5.43;;;2.58;;
3667;SDS011;24099;47.102;15.440;2023-12-14T02:58:12;2.83;;;2.00;;
3667;SDS011;24099;47.102;15.440;2023-12-14T03:00:39;4.93;;;2.35;;
3667;SDS011;24099;47.102;15.440;2023-12-14T03:03:06;4.15;;;2.38;;
3667;SDS011;24099;47.102;15.440;2023-12-14T03:05:34;7.00;;;3.05;;
3667;SDS011;24099;47.102;15.440;2023-12-14T03:08:02;5.57;;;2.70;;
3667;SDS011;24099;47.102;15.440;2023-12-14T03:10:30;5.18;;;2.40;;
3667;SDS011;24099;47.102;15.440;2023-12-14T03:13:03;4.85;;;2.50;;
3667;SDS011;24099;47.102;15.440;2023-12-14T03:15:31;4.85;;;2.35;;
3667;SDS011;24099;47.102;15.440;2023-12-14T03:17:59;5.38;;;2.60;;
3667;SDS011;24099;47.102;15.440;2023-12-14T03:20:28;2.95;;;1.70;;
3667;SDS011;24099;47.102;15.440;2023-12-14T03:22:56;4.50;;;2.58;;
3667;SDS011;24099;47.102;15.440;2023-12-14T03:25:24;6.22;;;2.75;;
3667;SDS011;24099;47.102;15.440;2023-12-14T03:27:57;4.10;;;2.30;;
3667;SDS011;24099;47.102;15.440;2023-12-14T03:30:26;2.75;;;1.83;;
3667;SDS011;24099;47.102;15.440;2023-12-14T03:32:53;5.05;;;3.00;;
3667;SDS011;24099;47.102;15.440;2023-12-14T03:35:21;3.83;;;2.20;;
3667;SDS011;24099;47.102;15.440;2023-12-14T03:37:49;3.88;;;2.40;;
3667;SDS011;24099;47.102;15.440;2023-12-14T03:40:26;3.25;;;2.30;;
3667;SDS011;24099;47.102;15.440;2023-12-14T03:42:54;3.78;;;2.75;;
3667;SDS011;24099;47.102;15.440;2023-12-14T03:45:22;5.20;;;2.20;;
3667;SDS011;24099;47.102;15.440;2023-12-14T03:47:52;2.92;;;1.98;;
3667;SDS011;24099;47.102;15.440;2023-12-14T03:50:20;3.63;;;2.33;;
3667;SDS011;24099;47.102;15.440;2023-12-14T03:52:47;3.47;;;2.08;;
3667;SDS011;24099;47.102;15.440;2023-12-14T03:55:15;7.00;;;2.88;;
3667;SDS011;24099;47.102;15.440;2023-12-14T03:57:43;5.15;;;2.17;;
3667;SDS011;24099;47.102;15.440;2023-12-14T04:00:11;4.55;;;2.30;;
3667;SDS011;24099;47.102;15.440;2023-12-14T04:02:40;3.58;;;2.30;;
3667;SDS011;24099;47.102;15.440;2023-12-14T04:05:09;4.68;;;2.70;;
3667;SDS011;24099;47.102;15.440;2023-12-14T04:07:37;4.07;;;2.40;;
3667;SDS011;24099;47.102;15.440;2023-12-14T04:10:06;4.80;;;2.33;;
3667;SDS011;24099;47.102;15.440;2023-12-14T04:12:34;6.10;;;2.50;;
3667;SDS011;24099;47.102;15.440;2023-12-14T04:15:03;3.08;;;2.17;;
3667;SDS011;24099;47.102;15.440;2023-12-14T04:17:32;3.05;;;2.22;;
3667;SDS011;24099;47.102;15.440;2023-12-14T04:20:00;2.97;;;2.10;;
3667;SDS011;24099;47.102;15.440;2023-12-14T04:22:36;3.60;;;1.92;;
3667;SDS011;24099;47.102;15.440;2023-12-14T04:25:12;4.97;;;2.45;;
3667;SDS011;24099;47.102;15.440;2023-12-14T04:27:39;5.25;;;2.30;;
3667;SDS011;24099;47.102;15.440;2023-12-14T04:30:07;4.75;;;2.20;;
3667;SDS011;24099;47.102;15.440;2023-12-14T04:32:37;3.15;;;2.17;;
3667;SDS011;24099;47.102;15.440;2023-12-14T04:35:05;3.58;;;2.40;;
3667;SDS011;24099;47.102;15.440;2023-12-14T04:37:33;6.18;;;2.30;;
3667;SDS011;24099;47.102;15.440;2023-12-14T04:40:07;3.85;;;2.15;;
3667;SDS011;24099;47.102;15.440;2023-12-14T04:42:35;3.72;;;2.20;;
3667;SDS011;24099;47.102;15.440;2023-12-14T04:45:03;2.80;;;1.92;;
3667;SDS011;24099;47.102;15.440;2023-12-14T04:47:34;4.65;;;2.28;;
3667;SDS011;24099;47.102;15.440;2023-12-14T04:50:02;3.03;;;2.15;;
3667;SDS011;24099;47.102;15.440;2023-12-14T04:52:30;4.57;;;2.13;;
3667;SDS011;24099;47.102;15.440;2023-12-14T04:54:58;10.48;;;2.08;;
3667;SDS011;24099;47.102;15.440;2023-12-14T04:57:27;4.68;;;2.38;;
3667;SDS011;24099;47.102;15.440;2023-12-14T04:59:54;4.63;;;2.28;;
3667;SDS011;24099;47.102;15.440;2023-12-14T05:02:33;3.95;;;2.20;;
3667;SDS011;24099;47.102;15.440;2023-12-14T05:05:00;4.38;;;2.30;;
3667;SDS011;24099;47.102;15.440;2023-12-14T05:07:32;2.65;;;1.67;;
3667;SDS011;24099;47.102;15.440;2023-12-14T05:10:05;6.47;;;2.80;;
3667;SDS011;24099;47.102;15.440;2023-12-14T05:12:36;3.92;;;2.28;;
3667;SDS011;24099;47.102;15.440;2023-12-14T05:15:04;3.80;;;1.88;;
3667;SDS011;24099;47.102;15.440;2023-12-14T05:17:32;4.25;;;1.88;;
3667;SDS011;24099;47.102;15.440;2023-12-14T05:20:05;4.90;;;2.45;;
3667;SDS011;24099;47.102;15.440;2023-12-14T05:22:35;2.72;;;1.70;;
3667;SDS011;24099;47.102;15.440;2023-12-14T05:25:04;3.08;;;1.85;;
3667;SDS011;24099;47.102;15.440;2023-12-14T05:27:32;4.78;;;2.47;;
3667;SDS011;24099;47.102;15.440;2023-12-14T05:30:02;3.42;;;2.25;;
3667;SDS011;24099;47.102;15.440;2023-12-14T05:32:29;2.88;;;1.88;;
3667;SDS011;24099;47.102;15.440;2023-12-14T05:34:59;3.80;;;2.58;;
3667;SDS011;24099;47.102;15.440;2023-12-14T05:37:27;4.22;;;2.25;;
3667;SDS011;24099;47.102;15.440;2023-12-14T05:39:55;5.30;;;2.22;;
3667;SDS011;24099;47.102;15.440;2023-12-14T05:42:22;4.78;;;2.25;;
3667;SDS011;24099;47.102;15.440;2023-12-14T05:44:50;5.28;;;2.25;;
3667;SDS011;24099;47.102;15.440;2023-12-14T05:47:19;4.03;;;2.72;;
3667;SDS011;24099;47.102;15.440;2023-12-14T05:49:46;4.93;;;2.50;;
3667;SDS011;24099;47.102;15.440;2023-12-14T05:52:15;2.88;;;2.25;;
3667;SDS011;24099;47.102;15.440;2023-12-14T05:54:46;3.53;;;2.40;;
3667;SDS011;24099;47.102;15.440;2023-12-14T05:57:13;3.00;;;2.10;;
3667;SDS011;24099;47.102;15.440;2023-12-14T05:59:41;4.65;;;2.53;;
3667;SDS011;24099;47.102;15.440;2023-12-14T06:02:09;3.78;;;1.75;;
3667;SDS011;24099;47.102;15.440;2023-12-14T06:04:38;2.90;;;1.92;;
3667;SDS011;24099;47.102;15.440;2023-12-14T06:07:06;11.48;;;2.45;;
3667;SDS011;24099;47.102;15.440;2023-12-14T06:09:34;2.72;;;1.65;;
3667;SDS011;24099;47.102;15.440;2023-12-14T06:12:02;3.17;;;2.15;;
3667;SDS011;24099;47.102;15.440;2023-12-14T06:14:30;2.25;;;1.52;;
3667;SDS011;24099;47.102;15.440;2023-12-14T06:16:58;3.83;;;2.15;;
3667;SDS011;24099;47.102;15.440;2023-12-14T06:19:26;3.90;;;1.80;;
3667;SDS011;24099;47.102;15.440;2023-12-14T06:21:55;4.53;;;1.73;;
3667;SDS011;24099;47.102;15.440;2023-12-14T06:24:23;2.72;;;1.80;;
3667;SDS011;24099;47.102;15.440;2023-12-14T06:26:50;5.80;;;2.47;;
3667;SDS011;24099;47.102;15.440;2023-12-14T06:29:18;2.58;;;1.73;;
3667;SDS011;24099;47.102;15.440;2023-12-14T06:31:46;2.40;;;1.85;;
3667;SDS011;24099;47.102;15.440;2023-12-14T06:34:14;3.63;;;2.20;;
3667;SDS011;24099;47.102;15.440;2023-12-14T06:36:42;2.13;;;1.88;;
3667;SDS011;24099;47.102;15.440;2023-12-14T06:39:11;4.40;;;2.03;;
3667;SDS011;24099;47.102;15.440;2023-12-14T06:41:39;1.90;;;1.65;;
3667;SDS011;24099;47.102;15.440;2023-12-14T06:44:07;1.92;;;1.70;;
3667;SDS011;24099;47.102;15.440;2023-12-14T06:46:35;6.60;;;2.30;;
3667;SDS011;24099;47.102;15.440;2023-12-14T06:49:03;9.65;;;2.97;;
3667;SDS011;24099;47.102;15.440;2023-12-14T06:51:31;14.43;;;3.83;;
3667;SDS011;24099;47.102;15.440;2023-12-14T06:53:58;15.75;;;2.88;;
3667;SDS011;24099;47.102;15.440;2023-12-14T06:56:28;16.38;;;5.22;;
3667;SDS011;24099;47.102;15.440;2023-12-14T06:58:56;10.07;;;3.70;;
3667;SDS011;24099;47.102;15.440;2023-12-14T07:01:23;20.17;;;3.97;;
3667;SDS011;24099;47.102;15.440;2023-12-14T07:03:51;6.30;;;2.67;;
3667;SDS011;24099;47.102;15.440;2023-12-14T07:06:21;2.92;;;1.90;;
3667;SDS011;24099;47.102;15.440;2023-12-14T07:08:48;2.97;;;1.75;;
3667;SDS011;24099;47.102;15.440;2023-12-14T07:11:16;2.10;;;1.63;;
3667;SDS011;24099;47.102;15.440;2023-12-14T07:16:12;4.55;;;1.90;;
3667;SDS011;24099;47.102;15.440;2023-12-14T07:18:41;3.13;;;1.70;;
3667;SDS011;24099;47.102;15.440;2023-12-14T07:21:09;1.55;;;1.45;;
3667;SDS011;24099;47.102;15.440;2023-12-14T07:23:37;1.98;;;1.63;;
3667;SDS011;24099;47.102;15.440;2023-12-14T07:26:04;2.72;;;1.73;;
3667;SDS011;24099;47.102;15.440;2023-12-14T07:28:32;2.78;;;1.80;;
3667;SDS011;24099;47.102;15.440;2023-12-14T07:31:01;2.53;;;1.65;;
3667;SDS011;24099;47.102;15.440;2023-12-14T07:33:29;3.78;;;2.05;;
3667;SDS011;24099;47.102;15.440;2023-12-14T07:35:56;2.30;;;1.85;;
3667;SDS011;24099;47.102;15.440;2023-12-14T07:38:24;7.85;;;1.55;;
3667;SDS011;24099;47.102;15.440;2023-12-14T07:40:51;3.22;;;1.70;;
3667;SDS011;24099;47.102;15.440;2023-12-14T07:43:19;2.22;;;1.67;;
3667;SDS011;24099;47.102;15.440;2023-12-14T07:45:46;1.42;;;1.30;;
3667;SDS011;24099;47.102;15.440;2023-12-14T07:48:15;1.95;;;1.50;;
3667;SDS011;24099;47.102;15.440;2023-12-14T07:50:43;3.47;;;1.77;;
3667;SDS011;24099;47.102;15.440;2023-12-14T07:53:11;1.85;;;1.50;;
3667;SDS011;24099;47.102;15.440;2023-12-14T07:55:38;3.22;;;1.35;;
3667;SDS011;24099;47.102;15.440;2023-12-14T07:58:07;3.38;;;1.95;;
3667;SDS011;24099;47.102;15.440;2023-12-14T08:00:34;2.65;;;1.88;;
3667;SDS011;24099;47.102;15.440;2023-12-14T08:03:02;2.42;;;1.85;;
3667;SDS011;24099;47.102;15.440;2023-12-14T08:05:31;4.95;;;2.30;;
3667;SDS011;24099;47.102;15.440;2023-12-14T08:07:59;2.67;;;2.03;;
3667;SDS011;24099;47.102;15.440;2023-12-14T08:10:26;2.05;;;1.60;;
3667;SDS011;24099;47.102;15.440;2023-12-14T08:12:54;3.80;;;2.05;;
3667;SDS011;24099;47.102;15.440;2023-12-14T08:15:21;2.53;;;1.70;;
3667;SDS011;24099;47.102;15.440;2023-12-14T08:17:49;2.22;;;1.40;;
3667;SDS011;24099;47.102;15.440;2023-12-14T08:20:16;2.88;;;2.20;;
3667;SDS011;24099;47.102;15.440;2023-12-14T08:22:45;2.75;;;1.88;;
3667;SDS011;24099;47.102;15.440;2023-12-14T08:25:13;5.07;;;2.13;;
3667;SDS011;24099;47.102;15.440;2023-12-14T08:27:40;2.60;;;2.00;;
3667;SDS011;24099;47.102;15.440;2023-12-14T08:30:09;2.30;;;1.90;;
3667;SDS011;24099;47.102;15.440;2023-12-14T08:32:38;3.13;;;2.05;;
3667;SDS011;24099;47.102;15.440;2023-12-14T08:35:06;4.72;;;2.22;;
3667;SDS011;24099;47.102;15.440;2023-12-14T08:37:35;6.47;;;2.75;;
3667;SDS011;24099;47.102;15.440;2023-12-14T08:40:05;5.22;;;2.55;;
3667;SDS011;24099;47.102;15.440;2023-12-14T08:42:33;4.03;;;2.38;;
3667;SDS011;24099;47.102;15.440;2023-12-14T08:45:01;3.53;;;2.42;;
3667;SDS011;24099;47.102;15.440;2023-12-14T08:47:29;10.10;;;2.60;;
3667;SDS011;24099;47.102;15.440;2023-12-14T08:49:56;4.45;;;2.30;;
3667;SDS011;24099;47.102;15.440;2023-12-14T08:52:24;5.38;;;2.30;;
3667;SDS011;24099;47.102;15.440;2023-12-14T08:54:51;6.38;;;2.33;;
3667;SDS011;24099;47.102;15.440;2023-12-14T08:57:20;5.45;;;2.25;;
3667;SDS011;24099;47.102;15.440;2023-12-14T08:59:48;3.03;;;1.77;;
3667;SDS011;24099;47.102;15.440;2023-12-14T09:02:16;5.35;;;2.28;;
3667;SDS011;24099;47.102;15.440;2023-12-14T09:04:44;6.05;;;2.30;;
3667;SDS011;24099;47.102;15.440;2023-12-14T09:07:11;3.78;;;2.10;;
3667;SDS011;24099;47.102;15.440;2023-12-14T09:09:39;7.03;;;2.42;;
3667;SDS011;24099;47.102;15.440;2023-12-14T09:12:07;4.22;;;2.17;;
3667;SDS011;24099;47.102;15.440;2023-12-14T09:14:36;3.33;;;2.03;;
3667;SDS011;24099;47.102;15.440;2023-12-14T09:17:04;2.85;;;2.05;;
3667;SDS011;24099;47.102;15.440;2023-12-14T09:19:31;7.45;;;1.80;;
3667;SDS011;24099;47.102;15.440;2023-12-14T09:21:59;4.05;;;2.05;;
3667;SDS011;24099;47.102;15.440;2023-12-14T09:24:27;3.92;;;2.20;;
3667;SDS011;24099;47.102;15.440;2023-12-14T09:26:55;3.13;;;2.05;;
3667;SDS011;24099;47.102;15.440;2023-12-14T09:29:22;7.80;;;2.45;;
3667;SDS011;24099;47.102;15.440;2023-12-14T09:31:51;3.35;;;2.38;;
3667;SDS011;24099;47.102;15.440;2023-12-14T09:34:22;3.50;;;1.88;;
3667;SDS011;24099;47.102;15.440;2023-12-14T09:36:50;2.40;;;1.52;;
3667;SDS011;24099;47.102;15.440;2023-12-14T09:39:17;3.22;;;1.60;;
3667;SDS011;24099;47.102;15.440;2023-12-14T09:41:46;3.22;;;1.75;;
3667;SDS011;24099;47.102;15.440;2023-12-14T09:44:16;5.10;;;2.28;;
3667;SDS011;24099;47.102;15.440;2023-12-14T09:46:44;3.90;;;1.88;;
3667;SDS011;24099;47.102;15.440;2023-12-14T09:49:16;2.83;;;2.13;;
3667;SDS011;24099;47.102;15.440;2023-12-14T09:51:44;2.88;;;1.77;;
3667;SDS011;24099;47.102;15.440;2023-12-14T09:54:12;2.83;;;2.20;;
3667;SDS011;24099;47.102;15.440;2023-12-14T09:56:45;3.58;;;1.83;;
3667;SDS011;24099;47.102;15.440;2023-12-14T09:59:13;3.30;;;2.03;;
3667;SDS011;24099;47.102;15.440;2023-12-14T10:01:41;2.63;;;1.70;;
3667;SDS011;24099;47.102;15.440;2023-12-14T10:04:10;2.67;;;2.10;;
3667;SDS011;24099;47.102;15.440;2023-12-14T10:06:41;4.25;;;2.28;;
3667;SDS011;24099;47.102;15.440;2023-12-14T10:09:10;3.08;;;1.98;;
3667;SDS011;24099;47.102;15.440;2023-12-14T10:11:41;5.63;;;2.05;;
3667;SDS011;24099;47.102;15.440;2023-12-14T10:14:18;6.40;;;1.75;;
3667;SDS011;24099;47.102;15.440;2023-12-14T10:16:47;1.63;;;1.42;;
3667;SDS011;24099;47.102;15.440;2023-12-14T10:19:16;3.75;;;1.83;;
3667;SDS011;24099;47.102;15.440;2023-12-14T10:21:46;2.05;;;1.50;;
3667;SDS011;24099;47.102;15.440;2023-12-14T10:24:14;4.45;;;1.73;;
3667;SDS011;24099;47.102;15.440;2023-12-14T10:26:44;2.92;;;1.63;;
3667;SDS011;24099;47.102;15.440;2023-12-14T10:29:12;3.55;;;2.17;;
3667;SDS011;24099;47.102;15.440;2023-12-14T10:31:40;2.97;;;1.70;;
3667;SDS011;24099;47.102;15.440;2023-12-14T10:34:08;5.03;;;2.03;;
3667;SDS011;24099;47.102;15.440;2023-12-14T10:36:37;5.38;;;2.45;;
3667;SDS011;24099;47.102;15.440;2023-12-14T10:39:07;2.60;;;1.90;;
3667;SDS011;24099;47.102;15.440;2023-12-14T10:41:37;3.83;;;2.20;;
3667;SDS011;24099;47.102;15.440;2023-12-14T10:44:06;5.82;;;1.70;;
3667;SDS011;24099;47.102;15.440;2023-12-14T10:46:35;5.38;;;1.98;;
3667;SDS011;24099;47.102;15.440;2023-12-14T10:49:03;5.28;;;2.47;;
3667;SDS011;24099;47.102;15.440;2023-12-14T10:51:31;3.60;;;1.85;;
3667;SDS011;24099;47.102;15.440;2023-12-14T10:54:00;3.80;;;2.05;;
3667;SDS011;24099;47.102;15.440;2023-12-14T10:56:29;3.33;;;2.17;;
3667;SDS011;24099;47.102;15.440;2023-12-14T10:58:58;2.83;;;1.95;;
3667;SDS011;24099;47.102;15.440;2023-12-14T11:01:28;3.95;;;2.03;;
3667;SDS011;24099;47.102;15.440;2023-12-14T11:04:00;4.88;;;2.42;;
3667;SDS011;24099;47.102;15.440;2023-12-14T11:06:28;2.65;;;1.73;;
3667;SDS011;24099;47.102;15.440;2023-12-14T11:08:57;3.80;;;2.17;;
3667;SDS011;24099;47.102;15.440;2023-12-14T11:11:30;3.25;;;2.28;;
3667;SDS011;24099;47.102;15.440;2023-12-14T11:14:07;2.80;;;2.05;;
3667;SDS011;24099;47.102;15.440;2023-12-14T11:16:37;5.13;;;1.95;;
3667;SDS011;24099;47.102;15.440;2023-12-14T11:19:26;7.38;;;2.28;;
3667;SDS011;24099;47.102;15.440;2023-12-14T11:22:11;4.78;;;1.85;;
3667;SDS011;24099;47.102;15.440;2023-12-14T11:24:42;3.00;;;2.05;;
3667;SDS011;24099;47.102;15.440;2023-12-14T11:27:22;4.05;;;1.80;;
3667;SDS011;24099;47.102;15.440;2023-12-14T11:29:54;2.85;;;2.05;;
3667;SDS011;24099;47.102;15.440;2023-12-14T11:32:22;2.22;;;1.60;;
3667;SDS011;24099;47.102;15.440;2023-12-14T11:34:51;4.80;;;1.80;;
3667;SDS011;24099;47.102;15.440;2023-12-14T11:37:18;3.10;;;1.60;;
3667;SDS011;24099;47.102;15.440;2023-12-14T11:39:49;3.03;;;1.70;;
3667;SDS011;24099;47.102;15.440;2023-12-14T11:42:18;3.95;;;1.67;;
3667;SDS011;24099;47.102;15.440;2023-12-14T11:44:47;3.70;;;1.73;;
3667;SDS011;24099;47.102;15.440;2023-12-14T11:47:15;1.52;;;1.35;;
3667;SDS011;24099;47.102;15.440;2023-12-14T11:49:42;1.23;;;0.90;;
3667;SDS011;24099;47.102;15.440;2023-12-14T11:52:10;1.23;;;0.85;;
3667;SDS011;24099;47.102;15.440;2023-12-14T11:54:37;1.60;;;1.30;;
3667;SDS011;24099;47.102;15.440;2023-12-14T11:57:05;1.67;;;0.82;;
3667;SDS011;24099;47.102;15.440;2023-12-14T11:59:36;1.27;;;1.00;;
3667;SDS011;24099;47.102;15.440;2023-12-14T12:02:04;0.93;;;0.80;;
3667;SDS011;24099;47.102;15.440;2023-12-14T12:04:31;1.10;;;0.95;;
3667;SDS011;24099;47.102;15.440;2023-12-14T12:06:59;2.50;;;0.70;;
3667;SDS011;24099;47.102;15.440;2023-12-14T12:09:32;2.15;;;1.00;;
3667;SDS011;24099;47.102;15.440;2023-12-14T12:12:01;2.00;;;1.23;;
3667;SDS011;24099;47.102;15.440;2023-12-14T12:14:31;0.90;;;0.90;;
3667;SDS011;24099;47.102;15.440;2023-12-14T12:17:00;1.50;;;1.40;;
3667;SDS011;24099;47.102;15.440;2023-12-14T12:19:29;1.63;;;1.00;;
3667;SDS011;24099;47.102;15.440;2023-12-14T12:21:58;1.08;;;0.98;;
3667;SDS011;24099;47.102;15.440;2023-12-14T12:24:25;1.17;;;0.98;;
3667;SDS011;24099;47.102;15.440;2023-12-14T12:26:52;3.25;;;1.30;;
3667;SDS011;24099;47.102;15.440;2023-12-14T12:29:20;2.03;;;1.05;;
3667;SDS011;24099;47.102;15.440;2023-12-14T12:31:48;1.40;;;1.02;;
3667;SDS011;24099;47.102;15.440;2023-12-14T12:34:18;1.65;;;1.55;;
3667;SDS011;24099;47.102;15.440;2023-12-14T12:36:45;4.78;;;1.20;;
3667;SDS011;24099;47.102;15.440;2023-12-14T12:39:13;1.33;;;0.95;;
3667;SDS011;24099;47.102;15.440;2023-12-14T12:41:40;3.50;;;1.00;;
3667;SDS011;24099;47.102;15.440;2023-12-14T12:44:08;2.42;;;1.50;;
3667;SDS011;24099;47.102;15.440;2023-12-14T12:46:36;1.90;;;0.95;;
3667;SDS011;24099;47.102;15.440;2023-12-14T12:49:04;1.63;;;1.10;;
3667;SDS011;24099;47.102;15.440;2023-12-14T12:51:34;4.63;;;0.93;;
3667;SDS011;24099;47.102;15.440;2023-12-14T12:54:01;1.40;;;0.82;;
3667;SDS011;24099;47.102;15.440;2023-12-14T12:56:29;1.33;;;0.95;;
3667;SDS011;24099;47.102;15.440;2023-12-14T12:58:56;1.13;;;0.93;;
3667;SDS011;24099;47.102;15.440;2023-12-14T13:01:24;1.33;;;1.00;;
3667;SDS011;24099;47.102;15.440;2023-12-14T13:03:55;1.00;;;0.85;;
3667;SDS011;24099;47.102;15.440;2023-12-14T13:06:23;3.90;;;0.90;;
3667;SDS011;24099;47.102;15.440;2023-12-14T13:08:52;6.30;;;1.00;;
3667;SDS011;24099;47.102;15.440;2023-12-14T13:11:20;1.52;;;1.00;;
3667;SDS011;24099;47.102;15.440;2023-12-14T13:13:48;1.63;;;0.90;;
3667;SDS011;24099;47.102;15.440;2023-12-14T13:16:15;1.35;;;0.88;;
3667;SDS011;24099;47.102;15.440;2023-12-14T13:18:43;1.38;;;0.90;;
3667;SDS011;24099;47.102;15.440;2023-12-14T13:21:11;4.45;;;1.38;;
3667;SDS011;24099;47.102;15.440;2023-12-14T13:23:38;2.63;;;0.93;;
3667;SDS011;24099;47.102;15.440;2023-12-14T13:26:08;1.10;;;0.80;;
3667;SDS011;24099;47.102;15.440;2023-12-14T13:28:35;1.38;;;0.95;;
3667;SDS011;24099;47.102;15.440;2023-12-14T13:31:03;0.73;;;0.65;;
3667;SDS011;24099;47.102;15.440;2023-12-14T13:33:31;2.47;;;1.05;;
3667;SDS011;24099;47.102;15.440;2023-12-14T13:35:59;0.70;;;0.70;;
3667;SDS011;24099;47.102;15.440;2023-12-14T13:38:25;4.65;;;0.70;;
3667;SDS011;24099;47.102;15.440;2023-12-14T13:40:53;2.15;;;0.98;;
3667;SDS011;24099;47.102;15.440;2023-12-14T13:43:22;0.85;;;0.80;;
3667;SDS011;24099;47.102;15.440;2023-12-14T13:45:50;0.77;;;0.50;;
3667;SDS011;24099;47.102;15.440;2023-12-14T13:48:22;0.63;;;0.55;;
3667;SDS011;24099;47.102;15.440;2023-12-14T13:50:50;1.30;;;0.43;;
3667;SDS011;24099;47.102;15.440;2023-12-14T13:53:18;0.95;;;0.70;;
3667;SDS011;24099;47.102;15.440;2023-12-14T13:55:45;1.20;;;0.52;;
3667;SDS011;24099;47.102;15.440;2023-12-14T13:58:14;1.05;;;0.50;;
3667;SDS011;24099;47.102;15.440;2023-12-14T14:00:43;0.52;;;0.40;;
3667;SDS011;24099;47.102;15.440;2023-12-14T14:03:10;1.00;;;0.85;;
3667;SDS011;24099;47.102;15.440;2023-12-14T14:05:38;4.47;;;0.70;;
3667;SDS011;24099;47.102;15.440;2023-12-14T14:08:09;0.70;;;0.60;;
3667;SDS011;24099;47.102;15.440;2023-12-14T14:10:36;0.50;;;0.50;;
3667;SDS011;24099;47.102;15.440;2023-12-14T14:13:04;0.40;;;0.40;;
3667;SDS011;24099;47.102;15.440;2023-12-14T14:15:32;2.65;;;1.10;;
3667;SDS011;24099;47.102;15.440;2023-12-14T14:18:01;0.40;;;0.40;;
3667;SDS011;24099;47.102;15.440;2023-12-14T14:20:28;0.50;;;0.50;;
3667;SDS011;24099;47.102;15.440;2023-12-14T14:22:56;1.55;;;0.75;;
3667;SDS011;24099;47.102;15.440;2023-12-14T14:25:24;1.42;;;0.88;;
3667;SDS011;24099;47.102;15.440;2023-12-14T14:27:52;0.50;;;0.50;;
3667;SDS011;24099;47.102;15.440;2023-12-14T14:30:19;6.38;;;0.80;;
3667;SDS011;24099;47.102;15.440;2023-12-14T14:32:47;0.68;;;0.68;;
3667;SDS011;24099;47.102;15.440;2023-12-14T14:35:16;1.80;;;0.60;;
3667;SDS011;24099;47.102;15.440;2023-12-14T14:37:43;0.52;;;0.52;;
3667;SDS011;24099;47.102;15.440;2023-12-14T14:40:11;0.60;;;0.60;;
3667;SDS011;24099;47.102;15.440;2023-12-14T14:42:39;0.63;;;0.63;;
3667;SDS011;24099;47.102;15.440;2023-12-14T14:45:08;5.68;;;0.50;;
3667;SDS011;24099;47.102;15.440;2023-12-14T14:47:36;0.50;;;0.50;;
3667;SDS011;24099;47.102;15.440;2023-12-14T14:50:06;0.63;;;0.60;;
3667;SDS011;24099;47.102;15.440;2023-12-14T14:52:35;0.90;;;0.65;;
3667;SDS011;24099;47.102;15.440;2023-12-14T14:55:03;2.25;;;0.50;;
3667;SDS011;24099;47.102;15.440;2023-12-14T14:57:31;2.20;;;0.88;;
3667;SDS011;24099;47.102;15.440;2023-12-14T14:59:59;0.52;;;0.52;;